sensor_id;sensor_type;location;lat;lon;timestamp;P1;durP1;ratioP1;P2;durP2;ratioP2
2656;SDS011;1338;48.176;11.792;2022-08-16T00:01:22;4.20;;;3.90;;
2656;SDS011;1338;48.176;11.792;2022-08-16T00:03:59;3.80;;;3.50;;
2656;SDS011;1338;48.176;11.792;2022-08-16T00:06:30;4.10;;;3.60;;
2656;SDS011;1338;48.176;11.792;2022-08-16T00:09:03;4.03;;;3.73;;
2656;SDS011;1338;48.176;11.792;2022-08-16T00:11:31;3.90;;;3.60;;
2656;SDS011;1338;48.176;11.792;2022-08-16T00:14:00;4.00;;;3.70;;
2656;SDS011;1338;48.176;11.792;2022-08-16T00:16:34;3.73;;;3.33;;
2656;SDS011;1338;48.176;11.792;2022-08-16T00:19:23;3.90;;;3.60;;
2656;SDS011;1338;48.176;11.792;2022-08-16T00:22:07;9.00;;;3.77;;
2656;SDS011;1338;48.176;11.792;2022-08-16T00:24:40;4.63;;;4.23;;
2656;SDS011;1338;48.176;11.792;2022-08-16T00:27:10;4.00;;;3.70;;
2656;SDS011;1338;48.176;11.792;2022-08-16T00:29:39;4.10;;;3.70;;
2656;SDS011;1338;48.176;11.792;2022-08-16T00:32:11;3.60;;;3.30;;
2656;SDS011;1338;48.176;11.792;2022-08-16T00:34:44;4.17;;;3.70;;
2656;SDS011;1338;48.176;11.792;2022-08-16T00:37:21;3.70;;;3.50;;
2656;SDS011;1338;48.176;11.792;2022-08-16T00:40:12;4.00;;;3.70;;
2656;SDS011;1338;48.176;11.792;2022-08-16T00:43:01;3.70;;;3.40;;
2656;SDS011;1338;48.176;11.792;2022-08-16T00:45:39;4.13;;;3.77;;
2656;SDS011;1338;48.176;11.792;2022-08-16T00:48:27;3.93;;;3.57;;
2656;SDS011;1338;48.176;11.792;2022-08-16T00:51:11;3.80;;;3.50;;
2656;SDS011;1338;48.176;11.792;2022-08-16T00:53:43;4.07;;;3.77;;
2656;SDS011;1338;48.176;11.792;2022-08-16T00:56:14;3.53;;;3.23;;
2656;SDS011;1338;48.176;11.792;2022-08-16T00:59:05;3.87;;;3.60;;
2656;SDS011;1338;48.176;11.792;2022-08-16T01:01:35;3.53;;;3.27;;
2656;SDS011;1338;48.176;11.792;2022-08-16T01:04:04;3.97;;;3.67;;
2656;SDS011;1338;48.176;11.792;2022-08-16T01:06:53;3.97;;;3.67;;
2656;SDS011;1338;48.176;11.792;2022-08-16T01:09:28;4.40;;;4.00;;
2656;SDS011;1338;48.176;11.792;2022-08-16T01:12:00;4.00;;;3.40;;
2656;SDS011;1338;48.176;11.792;2022-08-16T01:14:35;3.80;;;3.50;;
2656;SDS011;1338;48.176;11.792;2022-08-16T01:17:09;3.60;;;3.40;;
2656;SDS011;1338;48.176;11.792;2022-08-16T01:19:40;3.67;;;3.43;;
2656;SDS011;1338;48.176;11.792;2022-08-16T01:22:15;4.10;;;3.80;;
2656;SDS011;1338;48.176;11.792;2022-08-16T01:25:10;4.30;;;3.90;;
2656;SDS011;1338;48.176;11.792;2022-08-16T01:27:42;3.87;;;3.57;;
2656;SDS011;1338;48.176;11.792;2022-08-16T01:30:15;3.73;;;3.43;;
2656;SDS011;1338;48.176;11.792;2022-08-16T01:32:52;4.13;;;3.83;;
2656;SDS011;1338;48.176;11.792;2022-08-16T01:35:40;4.07;;;3.77;;
2656;SDS011;1338;48.176;11.792;2022-08-16T01:38:19;3.83;;;3.53;;
2656;SDS011;1338;48.176;11.792;2022-08-16T01:40:56;4.40;;;4.00;;
2656;SDS011;1338;48.176;11.792;2022-08-16T01:43:28;4.37;;;4.07;;
2656;SDS011;1338;48.176;11.792;2022-08-16T01:45:58;3.80;;;3.60;;
2656;SDS011;1338;48.176;11.792;2022-08-16T01:48:48;4.00;;;3.70;;
2656;SDS011;1338;48.176;11.792;2022-08-16T01:51:21;4.03;;;3.77;;
2656;SDS011;1338;48.176;11.792;2022-08-16T01:53:52;4.40;;;4.00;;
2656;SDS011;1338;48.176;11.792;2022-08-16T01:56:30;3.83;;;3.53;;
2656;SDS011;1338;48.176;11.792;2022-08-16T01:59:01;3.97;;;3.67;;
2656;SDS011;1338;48.176;11.792;2022-08-16T02:01:32;4.70;;;4.30;;
2656;SDS011;1338;48.176;11.792;2022-08-16T02:04:01;4.10;;;3.80;;
2656;SDS011;1338;48.176;11.792;2022-08-16T02:06:39;4.20;;;3.90;;
2656;SDS011;1338;48.176;11.792;2022-08-16T02:09:15;3.63;;;3.33;;
2656;SDS011;1338;48.176;11.792;2022-08-16T02:11:48;3.90;;;3.63;;
2656;SDS011;1338;48.176;11.792;2022-08-16T02:14:21;4.43;;;3.93;;
2656;SDS011;1338;48.176;11.792;2022-08-16T02:16:54;4.50;;;4.00;;
2656;SDS011;1338;48.176;11.792;2022-08-16T02:19:23;4.07;;;3.77;;
2656;SDS011;1338;48.176;11.792;2022-08-16T02:22:15;3.70;;;3.47;;
2656;SDS011;1338;48.176;11.792;2022-08-16T02:25:01;4.63;;;4.23;;
2656;SDS011;1338;48.176;11.792;2022-08-16T02:27:37;3.70;;;3.50;;
2656;SDS011;1338;48.176;11.792;2022-08-16T02:30:10;4.13;;;3.83;;
2656;SDS011;1338;48.176;11.792;2022-08-16T02:33:01;3.80;;;3.53;;
2656;SDS011;1338;48.176;11.792;2022-08-16T02:35:33;4.13;;;3.83;;
2656;SDS011;1338;48.176;11.792;2022-08-16T02:38:24;4.00;;;3.70;;
2656;SDS011;1338;48.176;11.792;2022-08-16T02:40:52;4.00;;;3.70;;
2656;SDS011;1338;48.176;11.792;2022-08-16T02:43:23;4.33;;;4.03;;
2656;SDS011;1338;48.176;11.792;2022-08-16T02:45:56;4.67;;;4.37;;
2656;SDS011;1338;48.176;11.792;2022-08-16T02:48:27;3.97;;;3.67;;
2656;SDS011;1338;48.176;11.792;2022-08-16T02:50:59;4.40;;;4.10;;
2656;SDS011;1338;48.176;11.792;2022-08-16T02:53:38;4.10;;;3.70;;
2656;SDS011;1338;48.176;11.792;2022-08-16T02:56:09;4.03;;;3.73;;
2656;SDS011;1338;48.176;11.792;2022-08-16T02:58:42;4.60;;;4.20;;
2656;SDS011;1338;48.176;11.792;2022-08-16T03:01:12;4.20;;;3.90;;
2656;SDS011;1338;48.176;11.792;2022-08-16T03:04:02;4.00;;;3.70;;
2656;SDS011;1338;48.176;11.792;2022-08-16T03:06:52;4.03;;;3.70;;
2656;SDS011;1338;48.176;11.792;2022-08-16T03:09:42;4.47;;;4.07;;
2656;SDS011;1338;48.176;11.792;2022-08-16T03:12:13;4.03;;;3.73;;
2656;SDS011;1338;48.176;11.792;2022-08-16T03:14:46;4.13;;;3.73;;
2656;SDS011;1338;48.176;11.792;2022-08-16T03:17:18;4.80;;;4.40;;
2656;SDS011;1338;48.176;11.792;2022-08-16T03:19:51;4.20;;;3.77;;
2656;SDS011;1338;48.176;11.792;2022-08-16T03:22:30;4.07;;;3.77;;
2656;SDS011;1338;48.176;11.792;2022-08-16T03:25:06;4.90;;;4.50;;
2656;SDS011;1338;48.176;11.792;2022-08-16T03:27:39;4.43;;;4.13;;
2656;SDS011;1338;48.176;11.792;2022-08-16T03:30:15;4.47;;;4.17;;
2656;SDS011;1338;48.176;11.792;2022-08-16T03:32:52;4.47;;;4.17;;
2656;SDS011;1338;48.176;11.792;2022-08-16T03:35:24;4.50;;;4.10;;
2656;SDS011;1338;48.176;11.792;2022-08-16T03:38:04;4.20;;;3.90;;
2656;SDS011;1338;48.176;11.792;2022-08-16T03:40:57;4.13;;;3.83;;
2656;SDS011;1338;48.176;11.792;2022-08-16T03:43:29;4.17;;;3.87;;
2656;SDS011;1338;48.176;11.792;2022-08-16T03:46:20;10.87;;;5.10;;
2656;SDS011;1338;48.176;11.792;2022-08-16T03:49:12;5.23;;;4.73;;
2656;SDS011;1338;48.176;11.792;2022-08-16T03:51:44;9.03;;;4.60;;
2656;SDS011;1338;48.176;11.792;2022-08-16T03:54:19;4.03;;;3.63;;
2656;SDS011;1338;48.176;11.792;2022-08-16T03:56:49;4.80;;;4.10;;
2656;SDS011;1338;48.176;11.792;2022-08-16T03:59:26;4.17;;;3.87;;
2656;SDS011;1338;48.176;11.792;2022-08-16T04:01:57;4.03;;;3.73;;
2656;SDS011;1338;48.176;11.792;2022-08-16T04:04:28;4.83;;;3.90;;
2656;SDS011;1338;48.176;11.792;2022-08-16T04:07:03;4.60;;;4.30;;
2656;SDS011;1338;48.176;11.792;2022-08-16T04:09:38;4.87;;;4.00;;
2656;SDS011;1338;48.176;11.792;2022-08-16T04:12:08;5.67;;;4.30;;
2656;SDS011;1338;48.176;11.792;2022-08-16T04:14:58;4.70;;;4.30;;
2656;SDS011;1338;48.176;11.792;2022-08-16T04:17:32;7.40;;;4.33;;
2656;SDS011;1338;48.176;11.792;2022-08-16T04:20:01;5.37;;;3.90;;
2656;SDS011;1338;48.176;11.792;2022-08-16T04:22:54;4.20;;;3.90;;
2656;SDS011;1338;48.176;11.792;2022-08-16T04:25:25;4.40;;;4.00;;
2656;SDS011;1338;48.176;11.792;2022-08-16T04:27:54;4.43;;;4.13;;
2656;SDS011;1338;48.176;11.792;2022-08-16T04:30:43;4.10;;;3.80;;
2656;SDS011;1338;48.176;11.792;2022-08-16T04:33:17;4.10;;;3.80;;
2656;SDS011;1338;48.176;11.792;2022-08-16T04:35:54;4.57;;;4.20;;
2656;SDS011;1338;48.176;11.792;2022-08-16T04:38:25;4.73;;;4.40;;
2656;SDS011;1338;48.176;11.792;2022-08-16T04:40:56;5.10;;;4.00;;
2656;SDS011;1338;48.176;11.792;2022-08-16T04:43:25;4.70;;;4.40;;
2656;SDS011;1338;48.176;11.792;2022-08-16T04:45:55;4.30;;;4.00;;
2656;SDS011;1338;48.176;11.792;2022-08-16T04:48:30;4.60;;;4.13;;
2656;SDS011;1338;48.176;11.792;2022-08-16T04:51:06;4.40;;;4.10;;
2656;SDS011;1338;48.176;11.792;2022-08-16T04:53:48;4.63;;;4.27;;
2656;SDS011;1338;48.176;11.792;2022-08-16T04:56:18;5.00;;;4.60;;
2656;SDS011;1338;48.176;11.792;2022-08-16T04:58:49;5.60;;;4.77;;
2656;SDS011;1338;48.176;11.792;2022-08-16T05:01:23;4.33;;;4.03;;
2656;SDS011;1338;48.176;11.792;2022-08-16T05:04:12;4.67;;;4.37;;
2656;SDS011;1338;48.176;11.792;2022-08-16T05:06:46;4.83;;;4.43;;
2656;SDS011;1338;48.176;11.792;2022-08-16T05:09:29;4.67;;;4.37;;
2656;SDS011;1338;48.176;11.792;2022-08-16T05:12:02;4.57;;;4.27;;
2656;SDS011;1338;48.176;11.792;2022-08-16T05:14:36;4.50;;;4.10;;
2656;SDS011;1338;48.176;11.792;2022-08-16T05:17:15;4.90;;;4.50;;
2656;SDS011;1338;48.176;11.792;2022-08-16T05:19:46;4.00;;;3.70;;
2656;SDS011;1338;48.176;11.792;2022-08-16T05:22:25;4.40;;;4.10;;
2656;SDS011;1338;48.176;11.792;2022-08-16T05:24:59;5.00;;;4.23;;
2656;SDS011;1338;48.176;11.792;2022-08-16T05:27:36;4.70;;;4.30;;
2656;SDS011;1338;48.176;11.792;2022-08-16T05:30:09;4.37;;;3.97;;
2656;SDS011;1338;48.176;11.792;2022-08-16T05:33:00;3.87;;;3.60;;
2656;SDS011;1338;48.176;11.792;2022-08-16T05:35:31;5.07;;;4.20;;
2656;SDS011;1338;48.176;11.792;2022-08-16T05:38:09;4.70;;;4.20;;
2656;SDS011;1338;48.176;11.792;2022-08-16T05:41:00;4.20;;;3.90;;
2656;SDS011;1338;48.176;11.792;2022-08-16T05:43:36;4.17;;;3.87;;
2656;SDS011;1338;48.176;11.792;2022-08-16T05:46:12;4.17;;;3.87;;
2656;SDS011;1338;48.176;11.792;2022-08-16T05:49:02;5.47;;;4.10;;
2656;SDS011;1338;48.176;11.792;2022-08-16T05:51:38;4.00;;;3.67;;
2656;SDS011;1338;48.176;11.792;2022-08-16T05:54:09;5.73;;;3.93;;
2656;SDS011;1338;48.176;11.792;2022-08-16T05:56:40;4.00;;;3.70;;
2656;SDS011;1338;48.176;11.792;2022-08-16T05:59:15;4.30;;;3.90;;
2656;SDS011;1338;48.176;11.792;2022-08-16T06:01:44;3.70;;;3.47;;
2656;SDS011;1338;48.176;11.792;2022-08-16T06:04:17;4.30;;;4.00;;
2656;SDS011;1338;48.176;11.792;2022-08-16T06:07:07;4.50;;;4.10;;
2656;SDS011;1338;48.176;11.792;2022-08-16T06:10:12;5.13;;;3.77;;
2656;SDS011;1338;48.176;11.792;2022-08-16T06:12:57;5.03;;;3.67;;
2656;SDS011;1338;48.176;11.792;2022-08-16T06:15:26;4.33;;;3.90;;
2656;SDS011;1338;48.176;11.792;2022-08-16T06:17:57;6.83;;;3.90;;
2656;SDS011;1338;48.176;11.792;2022-08-16T06:20:27;4.10;;;3.80;;
2656;SDS011;1338;48.176;11.792;2022-08-16T06:23:22;5.47;;;3.87;;
2656;SDS011;1338;48.176;11.792;2022-08-16T06:25:55;4.03;;;3.73;;
2656;SDS011;1338;48.176;11.792;2022-08-16T06:28:28;4.17;;;3.87;;
2656;SDS011;1338;48.176;11.792;2022-08-16T06:31:05;4.00;;;3.60;;
2656;SDS011;1338;48.176;11.792;2022-08-16T06:33:38;5.00;;;4.10;;
2656;SDS011;1338;48.176;11.792;2022-08-16T06:36:12;4.53;;;4.13;;
2656;SDS011;1338;48.176;11.792;2022-08-16T06:38:55;5.70;;;4.00;;
2656;SDS011;1338;48.176;11.792;2022-08-16T06:41:38;4.50;;;3.87;;
2656;SDS011;1338;48.176;11.792;2022-08-16T06:44:17;7.57;;;3.80;;
2656;SDS011;1338;48.176;11.792;2022-08-16T06:46:49;4.33;;;3.93;;
2656;SDS011;1338;48.176;11.792;2022-08-16T06:49:19;4.60;;;4.20;;
2656;SDS011;1338;48.176;11.792;2022-08-16T06:51:47;3.80;;;3.50;;
2656;SDS011;1338;48.176;11.792;2022-08-16T06:54:24;4.90;;;3.90;;
2656;SDS011;1338;48.176;11.792;2022-08-16T06:56:53;3.63;;;3.33;;
2656;SDS011;1338;48.176;11.792;2022-08-16T06:59:22;4.20;;;3.70;;
2656;SDS011;1338;48.176;11.792;2022-08-16T07:01:52;3.90;;;3.60;;
2656;SDS011;1338;48.176;11.792;2022-08-16T07:04:26;4.20;;;3.90;;
2656;SDS011;1338;48.176;11.792;2022-08-16T07:07:08;3.63;;;3.33;;
2656;SDS011;1338;48.176;11.792;2022-08-16T07:09:41;3.83;;;3.40;;
2656;SDS011;1338;48.176;11.792;2022-08-16T07:12:09;3.60;;;3.30;;
2656;SDS011;1338;48.176;11.792;2022-08-16T07:14:42;4.23;;;3.47;;
2656;SDS011;1338;48.176;11.792;2022-08-16T07:17:14;3.17;;;2.97;;
2656;SDS011;1338;48.176;11.792;2022-08-16T07:19:49;3.50;;;3.20;;
2656;SDS011;1338;48.176;11.792;2022-08-16T07:22:53;4.50;;;4.00;;
2656;SDS011;1338;48.176;11.792;2022-08-16T07:25:46;3.50;;;3.30;;
2656;SDS011;1338;48.176;11.792;2022-08-16T07:28:15;3.80;;;3.50;;
2656;SDS011;1338;48.176;11.792;2022-08-16T07:30:50;4.40;;;3.40;;
2656;SDS011;1338;48.176;11.792;2022-08-16T07:33:33;5.37;;;3.50;;
2656;SDS011;1338;48.176;11.792;2022-08-16T07:36:25;3.67;;;3.47;;
2656;SDS011;1338;48.176;11.792;2022-08-16T07:38:56;3.60;;;3.30;;
2656;SDS011;1338;48.176;11.792;2022-08-16T07:41:29;5.57;;;4.87;;
2656;SDS011;1338;48.176;11.792;2022-08-16T07:44:00;3.70;;;3.50;;
2656;SDS011;1338;48.176;11.792;2022-08-16T07:46:41;4.93;;;4.20;;
2656;SDS011;1338;48.176;11.792;2022-08-16T07:49:18;4.20;;;3.90;;
2656;SDS011;1338;48.176;11.792;2022-08-16T07:51:46;4.30;;;4.00;;
2656;SDS011;1338;48.176;11.792;2022-08-16T07:54:21;4.10;;;3.80;;
2656;SDS011;1338;48.176;11.792;2022-08-16T07:57:07;4.07;;;3.77;;
2656;SDS011;1338;48.176;11.792;2022-08-16T07:59:37;4.97;;;4.53;;
2656;SDS011;1338;48.176;11.792;2022-08-16T08:02:08;3.60;;;3.30;;
2656;SDS011;1338;48.176;11.792;2022-08-16T08:04:37;4.40;;;4.10;;
2656;SDS011;1338;48.176;11.792;2022-08-16T08:07:06;3.77;;;3.57;;
2656;SDS011;1338;48.176;11.792;2022-08-16T08:09:36;4.20;;;3.90;;
2656;SDS011;1338;48.176;11.792;2022-08-16T08:12:10;4.47;;;4.13;;
2656;SDS011;1338;48.176;11.792;2022-08-16T08:15:00;4.20;;;3.90;;
2656;SDS011;1338;48.176;11.792;2022-08-16T08:17:29;4.40;;;4.10;;
2656;SDS011;1338;48.176;11.792;2022-08-16T08:20:13;4.10;;;3.80;;
2656;SDS011;1338;48.176;11.792;2022-08-16T08:22:54;5.67;;;4.00;;
2656;SDS011;1338;48.176;11.792;2022-08-16T08:25:28;4.77;;;4.40;;
2656;SDS011;1338;48.176;11.792;2022-08-16T08:28:18;4.07;;;3.80;;
2656;SDS011;1338;48.176;11.792;2022-08-16T08:30:50;4.83;;;4.40;;
2656;SDS011;1338;48.176;11.792;2022-08-16T08:33:31;5.70;;;4.30;;
2656;SDS011;1338;48.176;11.792;2022-08-16T08:36:01;4.70;;;4.20;;
2656;SDS011;1338;48.176;11.792;2022-08-16T08:38:34;4.80;;;4.40;;
2656;SDS011;1338;48.176;11.792;2022-08-16T08:41:14;4.30;;;3.90;;
2656;SDS011;1338;48.176;11.792;2022-08-16T08:43:50;4.37;;;4.07;;
2656;SDS011;1338;48.176;11.792;2022-08-16T08:46:19;4.43;;;4.13;;
2656;SDS011;1338;48.176;11.792;2022-08-16T08:48:51;4.27;;;3.90;;
2656;SDS011;1338;48.176;11.792;2022-08-16T08:51:31;5.07;;;4.37;;
2656;SDS011;1338;48.176;11.792;2022-08-16T08:54:03;4.30;;;4.00;;
2656;SDS011;1338;48.176;11.792;2022-08-16T08:56:33;4.50;;;4.10;;
2656;SDS011;1338;48.176;11.792;2022-08-16T08:59:12;4.50;;;4.20;;
2656;SDS011;1338;48.176;11.792;2022-08-16T09:01:47;4.07;;;3.77;;
2656;SDS011;1338;48.176;11.792;2022-08-16T09:04:24;6.10;;;5.50;;
2656;SDS011;1338;48.176;11.792;2022-08-16T09:06:55;4.33;;;4.03;;
2656;SDS011;1338;48.176;11.792;2022-08-16T09:09:27;5.10;;;4.50;;
2656;SDS011;1338;48.176;11.792;2022-08-16T09:12:01;5.10;;;4.70;;
2656;SDS011;1338;48.176;11.792;2022-08-16T09:15:10;7.40;;;5.03;;
2656;SDS011;1338;48.176;11.792;2022-08-16T09:17:44;4.80;;;4.50;;
2656;SDS011;1338;48.176;11.792;2022-08-16T09:20:21;4.60;;;4.30;;
2656;SDS011;1338;48.176;11.792;2022-08-16T09:22:51;4.77;;;4.37;;
2656;SDS011;1338;48.176;11.792;2022-08-16T09:25:31;5.07;;;4.67;;
2656;SDS011;1338;48.176;11.792;2022-08-16T09:28:06;5.00;;;4.70;;
2656;SDS011;1338;48.176;11.792;2022-08-16T09:31:02;5.10;;;4.73;;
2656;SDS011;1338;48.176;11.792;2022-08-16T09:33:31;5.53;;;5.10;;
2656;SDS011;1338;48.176;11.792;2022-08-16T09:36:04;5.40;;;5.00;;
2656;SDS011;1338;48.176;11.792;2022-08-16T09:38:53;5.27;;;4.97;;
2656;SDS011;1338;48.176;11.792;2022-08-16T09:41:25;4.87;;;4.57;;
2656;SDS011;1338;48.176;11.792;2022-08-16T09:43:53;5.50;;;5.10;;
2656;SDS011;1338;48.176;11.792;2022-08-16T09:46:27;5.10;;;4.70;;
2656;SDS011;1338;48.176;11.792;2022-08-16T09:49:14;5.23;;;4.93;;
2656;SDS011;1338;48.176;11.792;2022-08-16T09:51:45;5.30;;;4.90;;
2656;SDS011;1338;48.176;11.792;2022-08-16T09:54:21;5.17;;;4.67;;
2656;SDS011;1338;48.176;11.792;2022-08-16T09:56:58;5.10;;;4.70;;
2656;SDS011;1338;48.176;11.792;2022-08-16T09:59:26;5.40;;;5.00;;
2656;SDS011;1338;48.176;11.792;2022-08-16T10:01:57;4.80;;;4.50;;
2656;SDS011;1338;48.176;11.792;2022-08-16T10:04:46;5.03;;;4.63;;
2656;SDS011;1338;48.176;11.792;2022-08-16T10:07:20;4.60;;;4.30;;
2656;SDS011;1338;48.176;11.792;2022-08-16T10:09:49;5.40;;;5.00;;
2656;SDS011;1338;48.176;11.792;2022-08-16T10:12:21;4.73;;;4.40;;
2656;SDS011;1338;48.176;11.792;2022-08-16T10:15:09;5.03;;;4.73;;
2656;SDS011;1338;48.176;11.792;2022-08-16T10:17:44;5.07;;;4.67;;
2656;SDS011;1338;48.176;11.792;2022-08-16T10:20:28;5.43;;;5.03;;
2656;SDS011;1338;48.176;11.792;2022-08-16T10:22:59;5.00;;;4.60;;
2656;SDS011;1338;48.176;11.792;2022-08-16T10:25:33;5.57;;;4.97;;
2656;SDS011;1338;48.176;11.792;2022-08-16T10:28:23;5.80;;;5.23;;
2656;SDS011;1338;48.176;11.792;2022-08-16T10:30:55;5.70;;;5.20;;
2656;SDS011;1338;48.176;11.792;2022-08-16T10:33:27;4.40;;;4.10;;
2656;SDS011;1338;48.176;11.792;2022-08-16T10:35:59;5.00;;;4.70;;
2656;SDS011;1338;48.176;11.792;2022-08-16T10:38:30;5.00;;;4.60;;
2656;SDS011;1338;48.176;11.792;2022-08-16T10:41:02;4.73;;;4.43;;
2656;SDS011;1338;48.176;11.792;2022-08-16T10:43:32;5.10;;;4.80;;
2656;SDS011;1338;48.176;11.792;2022-08-16T10:46:01;4.87;;;4.43;;
2656;SDS011;1338;48.176;11.792;2022-08-16T10:48:51;5.90;;;5.50;;
2656;SDS011;1338;48.176;11.792;2022-08-16T10:51:19;5.10;;;4.70;;
2656;SDS011;1338;48.176;11.792;2022-08-16T10:54:07;5.50;;;4.70;;
2656;SDS011;1338;48.176;11.792;2022-08-16T10:56:55;5.40;;;5.00;;
2656;SDS011;1338;48.176;11.792;2022-08-16T10:59:24;4.97;;;4.57;;
2656;SDS011;1338;48.176;11.792;2022-08-16T11:02:12;4.83;;;4.53;;
2656;SDS011;1338;48.176;11.792;2022-08-16T11:05:03;5.23;;;4.80;;
2656;SDS011;1338;48.176;11.792;2022-08-16T11:07:36;5.70;;;5.30;;
2656;SDS011;1338;48.176;11.792;2022-08-16T11:10:11;5.30;;;5.00;;
2656;SDS011;1338;48.176;11.792;2022-08-16T11:13:00;5.03;;;4.60;;
2656;SDS011;1338;48.176;11.792;2022-08-16T11:15:49;5.20;;;4.80;;
2656;SDS011;1338;48.176;11.792;2022-08-16T11:18:22;4.90;;;4.60;;
2656;SDS011;1338;48.176;11.792;2022-08-16T11:21:12;5.20;;;4.80;;
2656;SDS011;1338;48.176;11.792;2022-08-16T11:23:55;5.43;;;5.03;;
2656;SDS011;1338;48.176;11.792;2022-08-16T11:26:25;4.87;;;4.50;;
2656;SDS011;1338;48.176;11.792;2022-08-16T11:28:54;5.27;;;4.87;;
2656;SDS011;1338;48.176;11.792;2022-08-16T11:31:40;5.50;;;5.17;;
2656;SDS011;1338;48.176;11.792;2022-08-16T11:34:19;5.20;;;4.80;;
2656;SDS011;1338;48.176;11.792;2022-08-16T11:36:49;5.00;;;4.60;;
2656;SDS011;1338;48.176;11.792;2022-08-16T11:39:26;5.15;;;4.85;;
2656;SDS011;1338;48.176;11.792;2022-08-16T11:41:55;5.57;;;4.93;;
2656;SDS011;1338;48.176;11.792;2022-08-16T11:44:23;4.90;;;4.60;;
2656;SDS011;1338;48.176;11.792;2022-08-16T11:47:12;5.13;;;4.80;;
2656;SDS011;1338;48.176;11.792;2022-08-16T11:49:40;5.67;;;5.37;;
2656;SDS011;1338;48.176;11.792;2022-08-16T11:52:10;5.57;;;5.07;;
2656;SDS011;1338;48.176;11.792;2022-08-16T11:54:42;5.10;;;4.70;;
2656;SDS011;1338;48.176;11.792;2022-08-16T11:57:19;4.80;;;4.50;;
2656;SDS011;1338;48.176;11.792;2022-08-16T11:59:47;5.77;;;4.67;;
2656;SDS011;1338;48.176;11.792;2022-08-16T12:02:18;5.00;;;4.70;;
2656;SDS011;1338;48.176;11.792;2022-08-16T12:04:58;6.10;;;5.60;;
2656;SDS011;1338;48.176;11.792;2022-08-16T12:07:28;4.80;;;4.50;;
2656;SDS011;1338;48.176;11.792;2022-08-16T12:09:58;5.13;;;4.80;;
2656;SDS011;1338;48.176;11.792;2022-08-16T12:12:27;5.17;;;4.67;;
2656;SDS011;1338;48.176;11.792;2022-08-16T12:14:58;4.90;;;4.60;;
2656;SDS011;1338;48.176;11.792;2022-08-16T12:17:27;5.73;;;5.00;;
2656;SDS011;1338;48.176;11.792;2022-08-16T12:20:09;5.13;;;4.73;;
2656;SDS011;1338;48.176;11.792;2022-08-16T12:22:45;4.93;;;4.53;;
2656;SDS011;1338;48.176;11.792;2022-08-16T12:25:15;5.37;;;4.90;;
2656;SDS011;1338;48.176;11.792;2022-08-16T12:27:46;5.37;;;4.97;;
2656;SDS011;1338;48.176;11.792;2022-08-16T12:30:17;5.30;;;4.90;;
2656;SDS011;1338;48.176;11.792;2022-08-16T12:32:58;4.90;;;4.60;;
2656;SDS011;1338;48.176;11.792;2022-08-16T12:35:28;5.13;;;4.83;;
2656;SDS011;1338;48.176;11.792;2022-08-16T12:38:00;5.00;;;4.60;;
2656;SDS011;1338;48.176;11.792;2022-08-16T12:40:49;5.60;;;5.20;;
2656;SDS011;1338;48.176;11.792;2022-08-16T12:43:23;5.50;;;5.17;;
2656;SDS011;1338;48.176;11.792;2022-08-16T12:45:56;5.33;;;4.93;;
2656;SDS011;1338;48.176;11.792;2022-08-16T12:48:28;6.63;;;5.30;;
2656;SDS011;1338;48.176;11.792;2022-08-16T12:51:18;5.33;;;4.83;;
2656;SDS011;1338;48.176;11.792;2022-08-16T12:53:51;5.63;;;5.23;;
2656;SDS011;1338;48.176;11.792;2022-08-16T12:56:24;5.20;;;4.90;;
2656;SDS011;1338;48.176;11.792;2022-08-16T12:58:55;6.00;;;5.50;;
2656;SDS011;1338;48.176;11.792;2022-08-16T13:01:25;5.20;;;4.90;;
2656;SDS011;1338;48.176;11.792;2022-08-16T13:03:56;5.77;;;5.23;;
2656;SDS011;1338;48.176;11.792;2022-08-16T13:06:44;6.60;;;5.33;;
2656;SDS011;1338;48.176;11.792;2022-08-16T13:09:15;5.70;;;5.20;;
2656;SDS011;1338;48.176;11.792;2022-08-16T13:11:51;5.20;;;4.90;;
2656;SDS011;1338;48.176;11.792;2022-08-16T13:14:26;5.70;;;5.30;;
2656;SDS011;1338;48.176;11.792;2022-08-16T13:16:59;6.13;;;5.33;;
2656;SDS011;1338;48.176;11.792;2022-08-16T13:19:31;5.47;;;4.97;;
2656;SDS011;1338;48.176;11.792;2022-08-16T13:22:20;5.50;;;5.10;;
2656;SDS011;1338;48.176;11.792;2022-08-16T13:24:51;5.00;;;4.70;;
2656;SDS011;1338;48.176;11.792;2022-08-16T13:27:20;5.57;;;5.10;;
2656;SDS011;1338;48.176;11.792;2022-08-16T13:30:08;4.97;;;4.63;;
2656;SDS011;1338;48.176;11.792;2022-08-16T13:32:57;5.30;;;4.90;;
2656;SDS011;1338;48.176;11.792;2022-08-16T13:35:26;5.90;;;5.40;;
2656;SDS011;1338;48.176;11.792;2022-08-16T13:38:00;6.30;;;5.90;;
2656;SDS011;1338;48.176;11.792;2022-08-16T13:40:29;5.67;;;5.20;;
2656;SDS011;1338;48.176;11.792;2022-08-16T13:42:58;6.00;;;5.50;;
2656;SDS011;1338;48.176;11.792;2022-08-16T13:45:27;5.73;;;5.30;;
2656;SDS011;1338;48.176;11.792;2022-08-16T13:48:02;6.03;;;5.33;;
2656;SDS011;1338;48.176;11.792;2022-08-16T13:50:31;5.50;;;5.10;;
2656;SDS011;1338;48.176;11.792;2022-08-16T13:53:17;6.67;;;4.53;;
2656;SDS011;1338;48.176;11.792;2022-08-16T13:55:51;5.60;;;5.10;;
2656;SDS011;1338;48.176;11.792;2022-08-16T13:58:24;6.07;;;5.30;;
2656;SDS011;1338;48.176;11.792;2022-08-16T14:01:05;5.30;;;5.00;;
2656;SDS011;1338;48.176;11.792;2022-08-16T14:03:35;5.77;;;5.37;;
2656;SDS011;1338;48.176;11.792;2022-08-16T14:06:04;5.33;;;5.00;;
2656;SDS011;1338;48.176;11.792;2022-08-16T14:08:36;5.43;;;5.10;;
2656;SDS011;1338;48.176;11.792;2022-08-16T14:11:09;5.60;;;5.10;;
2656;SDS011;1338;48.176;11.792;2022-08-16T14:13:39;6.07;;;5.30;;
2656;SDS011;1338;48.176;11.792;2022-08-16T14:16:09;6.00;;;5.60;;
2656;SDS011;1338;48.176;11.792;2022-08-16T14:18:50;5.70;;;5.30;;
2656;SDS011;1338;48.176;11.792;2022-08-16T14:21:19;5.67;;;5.27;;
2656;SDS011;1338;48.176;11.792;2022-08-16T14:23:49;5.60;;;5.30;;
2656;SDS011;1338;48.176;11.792;2022-08-16T14:26:19;5.70;;;5.40;;
2656;SDS011;1338;48.176;11.792;2022-08-16T14:28:50;5.27;;;4.90;;
2656;SDS011;1338;48.176;11.792;2022-08-16T14:31:19;5.70;;;5.30;;
2656;SDS011;1338;48.176;11.792;2022-08-16T14:33:49;6.60;;;6.00;;
2656;SDS011;1338;48.176;11.792;2022-08-16T14:36:18;6.10;;;5.70;;
2656;SDS011;1338;48.176;11.792;2022-08-16T14:38:55;5.97;;;5.47;;
2656;SDS011;1338;48.176;11.792;2022-08-16T14:41:25;7.70;;;5.20;;
2656;SDS011;1338;48.176;11.792;2022-08-16T14:43:54;5.97;;;5.57;;
2656;SDS011;1338;48.176;11.792;2022-08-16T14:46:22;5.80;;;5.40;;
2656;SDS011;1338;48.176;11.792;2022-08-16T14:48:51;6.00;;;5.60;;
2656;SDS011;1338;48.176;11.792;2022-08-16T14:51:19;6.27;;;5.20;;
2656;SDS011;1338;48.176;11.792;2022-08-16T14:53:52;9.50;;;5.43;;
2656;SDS011;1338;48.176;11.792;2022-08-16T14:56:22;5.70;;;5.30;;
2656;SDS011;1338;48.176;11.792;2022-08-16T14:59:11;5.60;;;5.10;;
2656;SDS011;1338;48.176;11.792;2022-08-16T15:01:39;6.97;;;5.37;;
2656;SDS011;1338;48.176;11.792;2022-08-16T15:04:26;6.10;;;5.60;;
2656;SDS011;1338;48.176;11.792;2022-08-16T15:07:06;6.10;;;5.50;;
2656;SDS011;1338;48.176;11.792;2022-08-16T15:09:38;5.67;;;5.27;;
2656;SDS011;1338;48.176;11.792;2022-08-16T15:12:26;5.30;;;5.00;;
2656;SDS011;1338;48.176;11.792;2022-08-16T15:15:01;6.23;;;5.83;;
2656;SDS011;1338;48.176;11.792;2022-08-16T15:17:42;6.20;;;5.70;;
2656;SDS011;1338;48.176;11.792;2022-08-16T15:20:22;6.27;;;5.67;;
2656;SDS011;1338;48.176;11.792;2022-08-16T15:22:55;6.30;;;5.70;;
2656;SDS011;1338;48.176;11.792;2022-08-16T15:25:26;5.57;;;5.17;;
2656;SDS011;1338;48.176;11.792;2022-08-16T15:27:56;5.50;;;5.10;;
2656;SDS011;1338;48.176;11.792;2022-08-16T15:30:28;5.77;;;5.47;;
2656;SDS011;1338;48.176;11.792;2022-08-16T15:33:17;5.90;;;5.50;;
2656;SDS011;1338;48.176;11.792;2022-08-16T15:35:48;5.70;;;5.30;;
2656;SDS011;1338;48.176;11.792;2022-08-16T15:38:21;5.70;;;5.30;;
2656;SDS011;1338;48.176;11.792;2022-08-16T15:41:09;5.90;;;5.40;;
2656;SDS011;1338;48.176;11.792;2022-08-16T15:43:38;6.30;;;5.70;;
2656;SDS011;1338;48.176;11.792;2022-08-16T15:46:08;11.00;;;6.63;;
2656;SDS011;1338;48.176;11.792;2022-08-16T15:49:11;8.90;;;5.63;;
2656;SDS011;1338;48.176;11.792;2022-08-16T15:51:42;5.87;;;5.33;;
2656;SDS011;1338;48.176;11.792;2022-08-16T15:54:12;5.77;;;5.27;;